Time,TemperatureF,DewpointF,PressureIn,WindDirection,WindDirectionDegrees,WindSpeedMPH,WindSpeedGustMPH,Humidity,HourlyPrecipIn,Conditions,Clouds,dailyrainin,SoftwareType,DateUTC
2013-06-29 00:01:00,62.8,61.9,29.74,West,270,0.0,0.0,97,0.05,,CLR,0.00,VWS V14.01,2013-06-29 04:01:00,
2013-06-29 00:06:00,62.6,61.7,29.74,South,180,1.3,1.6,97,0.09,,CLR,0.04,VWS V14.01,2013-06-29 04:06:00,
2013-06-29 00:11:00,62.6,61.7,29.74,East,90,2.5,2.9,97,0.09,,CLR,0.04,VWS V14.01,2013-06-29 04:11:00,
2013-06-29 00:16:00,62.4,61.6,29.74,NE,45,0.0,1.6,97,0.09,,CLR,0.00,VWS V14.01,2013-06-29 04:16:00,
2013-06-29 00:21:00,62.2,61.4,29.74,NNW,338,0.0,0.0,97,0.09,,CLR,0.04,VWS V14.01,2013-06-29 04:21:00,
2013-06-29 00:26:00,61.9,60.7,29.74,NNW,338,0.0,0.0,96,0.09,,CLR,0.04,VWS V14.01,2013-06-29 04:26:00,
2013-06-29 00:31:00,61.7,60.3,29.74,NNW,338,0.0,0.0,95,0.09,,CLR,0.04,VWS V14.01,2013-06-29 04:31:00,
2013-06-29 00:36:00,61.7,60.5,29.74,East,90,0.0,1.1,96,0.09,,CLR,0.04,VWS V14.01,2013-06-29 04:36:00,
2013-06-29 00:41:00,61.7,60.3,29.74,South,180,1.1,2.2,95,0.09,,CLR,0.04,VWS V14.01,2013-06-29 04:41:00,
2013-06-29 00:46:00,61.9,60.7,29.76,South,180,0.0,0.0,96,0.09,,CLR,0.04,VWS V14.01,2013-06-29 04:46:00,
2013-06-29 00:51:00,61.7,60.5,29.76,South,180,0.0,0.0,96,0.09,,CLR,0.04,VWS V14.01,2013-06-29 04:51:00,
2013-06-29 00:56:00,61.9,60.4,29.76,South,180,0.0,0.0,95,0.04,,CLR,0.04,VWS V14.01,2013-06-29 04:56:00,
2013-06-29 01:01:00,61.9,60.7,29.74,South,180,0.0,0.0,96,0.04,,-RA,0.04,VWS V14.01,2013-06-29 05:01:00,
2013-06-29 01:06:00,61.9,60.7,29.74,SE,135,0.0,0.0,96,0.04,,-RA,0.04,VWS V14.01,2013-06-29 05:06:00,
2013-06-29 01:11:00,61.7,60.5,29.74,East,90,0.0,0.0,96,0.00,,-RA,0.04,VWS V14.01,2013-06-29 05:11:00,
2013-06-29 01:16:00,61.5,60.4,29.71,East,90,0.0,0.0,96,0.00,,-RA,0.04,VWS V14.01,2013-06-29 05:16:00,
2013-06-29 01:21:00,61.3,59.9,29.71,NNW,338,0.0,0.0,95,0.00,,-RA,0.04,VWS V14.01,2013-06-29 05:21:00,
2013-06-29 01:26:00,61.3,59.9,29.71,SE,135,0.0,0.0,95,0.00,,-RA,0.04,VWS V14.01,2013-06-29 05:26:00,
2013-06-29 01:31:00,61.2,59.7,29.71,ESE,112,0.0,0.0,95,0.00,,-RA,0.04,VWS V14.01,2013-06-29 05:31:00,
2013-06-29 01:36:00,60.6,59.2,29.71,East,90,0.0,0.0,95,0.00,,-RA,0.04,VWS V14.01,2013-06-29 05:36:00,
2013-06-29 01:41:00,60.4,59.0,29.71,East,90,0.0,0.0,95,0.00,,-RA,0.04,VWS V14.01,2013-06-29 05:41:00,
2013-06-29 01:46:00,60.4,59.0,29.74,East,90,0.0,0.0,95,0.00,,-RA,0.04,VWS V14.01,2013-06-29 05:46:00,
2013-06-29 01:51:00,60.4,59.0,29.74,SE,135,0.0,0.0,95,0.00,,-RA,0.04,VWS V14.01,2013-06-29 05:51:00,
2013-06-29 01:56:00,59.9,58.5,29.74,SE,135,0.0,0.0,95,0.00,,-RA,0.04,VWS V14.01,2013-06-29 05:56:00,
2013-06-29 02:01:00,59.7,58.3,29.74,SE,135,0.0,0.0,95,0.00,,BKN110,0.04,VWS V14.01,2013-06-29 06:01:00,
2013-06-29 02:06:00,59.4,57.9,29.74,SE,135,0.0,0.0,95,0.00,,BKN110,0.04,VWS V14.01,2013-06-29 06:06:00,
2013-06-29 02:11:00,59.5,58.1,29.74,SE,135,0.0,0.0,95,0.00,,BKN110,0.04,VWS V14.01,2013-06-29 06:11:00,
2013-06-29 02:16:00,59.5,58.1,29.74,SE,135,0.0,0.0,95,0.00,,BKN110,0.04,VWS V14.01,2013-06-29 06:16:00,
2013-06-29 02:21:00,59.9,58.5,29.74,SE,135,0.0,0.0,95,0.00,,BKN110,0.04,VWS V14.01,2013-06-29 06:21:00,
2013-06-29 02:26:00,59.7,58.6,29.74,SE,135,0.0,0.0,96,0.00,,BKN110,0.04,VWS V14.01,2013-06-29 06:26:00,
2013-06-29 02:31:00,59.7,58.6,29.74,SE,135,0.0,0.0,96,0.00,,BKN110,0.04,VWS V14.01,2013-06-29 06:31:00,
2013-06-29 02:36:00,59.4,58.2,29.74,SE,135,0.0,0.0,96,0.00,,BKN110,0.04,VWS V14.01,2013-06-29 06:36:00,
2013-06-29 02:41:00,59.4,58.2,29.74,SE,135,0.0,0.0,96,0.00,,BKN110,0.04,VWS V14.01,2013-06-29 06:41:00,
2013-06-29 02:46:00,59.4,58.2,29.74,SE,135,0.0,0.0,96,0.00,,BKN110,0.04,VWS V14.01,2013-06-29 06:46:00,
2013-06-29 02:51:00,59.2,58.0,29.74,SE,135,0.0,0.0,96,0.00,,BKN110,0.04,VWS V14.01,2013-06-29 06:51:00,
2013-06-29 02:56:00,59.2,58.0,29.74,SE,135,0.0,0.0,96,0.00,,BKN110,0.04,VWS V14.01,2013-06-29 06:56:00,
2013-06-29 03:01:00,59.0,57.9,29.74,SE,135,0.0,0.0,96,0.00,,BKN110,0.04,VWS V14.01,2013-06-29 07:01:00,
2013-06-29 03:06:00,59.4,58.2,29.74,SE,135,0.0,0.0,96,0.00,,BKN110,0.04,VWS V14.01,2013-06-29 07:06:00,
2013-06-29 03:11:00,59.7,58.9,29.74,SE,135,0.0,0.0,97,0.00,,BKN110,0.04,VWS V14.01,2013-06-29 07:11:00,
2013-06-29 03:16:00,59.5,58.7,29.74,SE,135,0.0,0.0,97,0.00,,BKN110,0.04,VWS V14.01,2013-06-29 07:16:00,
2013-06-29 03:21:00,59.4,58.5,29.74,South,180,0.0,0.0,97,0.00,,BKN110,0.04,VWS V14.01,2013-06-29 07:21:00,
2013-06-29 03:26:00,59.2,58.3,29.74,SSE,158,0.0,0.0,97,0.00,,BKN110,0.04,VWS V14.01,2013-06-29 07:26:00,
2013-06-29 03:31:00,59.0,58.2,29.71,NW,315,0.0,0.0,97,0.00,,BKN110,0.04,VWS V14.01,2013-06-29 07:31:00,
2013-06-29 03:36:00,58.8,58.0,29.71,NE,45,0.0,0.0,97,0.00,,BKN110,0.04,VWS V14.01,2013-06-29 07:36:00,
2013-06-29 03:41:00,59.0,58.2,29.71,ENE,68,0.0,0.0,97,0.00,,BKN110,0.04,VWS V14.01,2013-06-29 07:41:00,
2013-06-29 03:46:00,59.2,58.6,29.71,East,90,0.0,0.0,98,0.00,,BKN110,0.04,VWS V14.01,2013-06-29 07:46:00,
2013-06-29 03:51:00,59.2,58.6,29.71,SE,135,0.0,1.6,98,0.00,,BKN110,0.04,VWS V14.01,2013-06-29 07:51:00,
2013-06-29 03:56:00,59.2,58.6,29.71,South,180,2.0,2.7,98,0.00,,BKN110,0.04,VWS V14.01,2013-06-29 07:56:00,
2013-06-29 04:01:00,59.0,58.4,29.71,South,180,0.0,1.6,98,0.00,,SCT043,0.04,VWS V14.01,2013-06-29 08:01:00,
2013-06-29 04:06:00,58.8,58.3,29.71,SW,225,0.0,0.0,98,0.00,,SCT043,0.04,VWS V14.01,2013-06-29 08:06:00,
2013-06-29 04:11:00,58.8,58.3,29.71,SW,225,0.0,0.0,98,0.00,,SCT043,0.04,VWS V14.01,2013-06-29 08:11:00,
2013-06-29 04:16:00,58.6,58.1,29.71,SW,225,0.0,0.0,98,0.00,,SCT043,0.04,VWS V14.01,2013-06-29 08:16:00,
2013-06-29 04:21:00,58.6,58.1,29.71,ENE,68,0.0,0.0,98,0.00,,SCT043,0.04,VWS V14.01,2013-06-29 08:21:00,
2013-06-29 04:26:00,58.6,58.1,29.71,ENE,68,0.0,0.0,98,0.00,,SCT043,0.04,VWS V14.01,2013-06-29 08:26:00,
2013-06-29 04:31:00,58.6,58.1,29.71,ENE,68,0.0,0.0,98,0.00,,SCT043,0.04,VWS V14.01,2013-06-29 08:31:00,
2013-06-29 04:36:00,58.5,57.9,29.71,North,0,1.1,1.1,98,0.00,,SCT043,0.04,VWS V14.01,2013-06-29 08:36:00,
2013-06-29 04:41:00,58.5,57.9,29.71,SE,135,0.0,0.9,98,0.00,,SCT043,0.04,VWS V14.01,2013-06-29 08:41:00,
2013-06-29 04:46:00,58.5,57.9,29.71,SE,135,0.0,1.3,98,0.00,,SCT043,0.04,VWS V14.01,2013-06-29 08:46:00,
2013-06-29 04:51:00,58.1,57.5,29.71,SE,135,0.0,0.0,98,0.00,,SCT043,0.04,VWS V14.01,2013-06-29 08:51:00,
2013-06-29 04:56:00,57.9,57.4,29.71,SE,135,0.0,0.0,98,0.00,,SCT043,0.04,VWS V14.01,2013-06-29 08:56:00,
2013-06-29 05:01:00,57.9,57.4,29.71,SE,135,0.0,0.0,98,0.00,,FEW012,0.04,VWS V14.01,2013-06-29 09:01:00,
2013-06-29 05:06:00,57.6,57.0,29.71,SE,135,0.0,0.0,98,0.00,,FEW012,0.04,VWS V14.01,2013-06-29 09:06:00,
2013-06-29 05:11:00,57.6,57.0,29.71,South,180,0.0,0.0,98,0.00,,FEW012,0.04,VWS V14.01,2013-06-29 09:11:00,
2013-06-29 05:16:00,57.6,57.0,29.71,SW,225,0.0,0.0,98,0.00,,FEW012,0.04,VWS V14.01,2013-06-29 09:16:00,
2013-06-29 05:21:00,57.6,57.0,29.71,SW,225,0.0,0.0,98,0.00,,FEW012,0.04,VWS V14.01,2013-06-29 09:21:00,
2013-06-29 05:26:00,57.6,57.0,29.71,North,0,0.0,0.0,98,0.00,,FEW012,0.04,VWS V14.01,2013-06-29 09:26:00,
2013-06-29 05:31:00,57.4,56.8,29.71,West,270,0.0,0.0,98,0.00,,FEW012,0.04,VWS V14.01,2013-06-29 09:31:00,
2013-06-29 05:36:00,57.4,56.8,29.71,South,180,0.0,0.0,98,0.00,,FEW012,0.04,VWS V14.01,2013-06-29 09:36:00,
2013-06-29 05:41:00,57.4,56.8,29.71,SE,135,0.0,0.0,98,0.00,,FEW012,0.04,VWS V14.01,2013-06-29 09:41:00,
2013-06-29 05:46:00,57.2,56.6,29.74,South,180,0.0,0.9,98,0.00,,FEW012,0.04,VWS V14.01,2013-06-29 09:46:00,
2013-06-29 05:51:00,57.2,56.6,29.74,South,180,0.0,0.0,98,0.00,,FEW012,0.04,VWS V14.01,2013-06-29 09:51:00,
2013-06-29 05:56:00,57.0,56.5,29.74,West,270,0.0,0.0,98,0.00,,FEW012,0.04,VWS V14.01,2013-06-29 09:56:00,
2013-06-29 06:01:00,57.0,56.5,29.74,SW,225,0.0,0.0,98,0.00,,SCT012,0.04,VWS V14.01,2013-06-29 10:01:00,
2013-06-29 06:06:00,57.0,56.5,29.74,West,270,0.0,0.0,98,0.00,,SCT012,0.04,VWS V14.01,2013-06-29 10:06:00,
2013-06-29 06:11:00,57.0,56.5,29.74,West,270,0.0,0.0,98,0.00,,SCT012,0.04,VWS V14.01,2013-06-29 10:11:00,
2013-06-29 06:16:00,57.0,56.5,29.74,WSW,248,0.0,1.3,98,0.00,,SCT012,0.04,VWS V14.01,2013-06-29 10:16:00,
2013-06-29 06:21:00,57.2,56.6,29.74,SSW,202,0.0,2.0,98,0.00,,SCT012,0.04,VWS V14.01,2013-06-29 10:21:00,
2013-06-29 06:26:00,57.0,56.5,29.74,SW,225,0.0,0.0,98,0.00,,SCT012,0.04,VWS V14.01,2013-06-29 10:26:00,
2013-06-29 06:31:00,57.2,56.6,29.74,SSE,158,0.0,2.7,98,0.00,,SCT012,0.04,VWS V14.01,2013-06-29 10:31:00,
2013-06-29 06:36:00,57.0,56.5,29.74,SSW,202,0.0,0.0,98,0.00,,SCT012,0.04,VWS V14.01,2013-06-29 10:36:00,
2013-06-29 06:41:00,57.0,56.5,29.74,South,180,0.0,0.0,98,0.00,,SCT012,0.04,VWS V14.01,2013-06-29 10:41:00,
2013-06-29 06:46:00,57.2,56.6,29.74,South,180,0.0,0.0,98,0.00,,SCT012,0.04,VWS V14.01,2013-06-29 10:46:00,
2013-06-29 06:51:00,57.2,56.6,29.74,ESE,112,0.9,1.6,98,0.00,,SCT012,0.04,VWS V14.01,2013-06-29 10:51:00,
2013-06-29 06:56:00,57.4,56.8,29.74,SSE,158,0.0,0.0,98,0.00,,SCT012,0.04,VWS V14.01,2013-06-29 10:56:00,
2013-06-29 07:01:00,57.6,57.0,29.74,East,90,0.0,0.0,98,0.00,,SCT008,0.04,VWS V14.01,2013-06-29 11:01:00,
2013-06-29 07:06:00,57.6,57.0,29.74,South,180,0.0,0.0,98,0.00,,SCT008,0.04,VWS V14.01,2013-06-29 11:06:00,
2013-06-29 07:11:00,57.9,57.4,29.74,South,180,0.0,0.0,98,0.00,,SCT008,0.04,VWS V14.01,2013-06-29 11:11:00,
2013-06-29 07:16:00,58.3,57.7,29.71,South,180,0.0,0.0,98,0.00,,SCT008,0.04,VWS V14.01,2013-06-29 11:16:00,
2013-06-29 07:21:00,58.8,58.3,29.71,NNW,338,0.0,0.0,98,0.00,,SCT008,0.04,VWS V14.01,2013-06-29 11:21:00,
2013-06-29 07:26:00,59.2,58.6,29.71,NNW,338,0.0,0.0,98,0.00,,SCT008,0.04,VWS V14.01,2013-06-29 11:26:00,
2013-06-29 07:31:00,59.2,58.6,29.74,ENE,68,0.0,0.0,98,0.00,,SCT008,0.04,VWS V14.01,2013-06-29 11:31:00,
2013-06-29 07:36:00,59.2,58.6,29.74,NE,45,0.0,0.0,98,0.00,,SCT008,0.04,VWS V14.01,2013-06-29 11:36:00,
2013-06-29 07:41:00,59.2,58.6,29.74,ENE,68,0.0,0.0,98,0.00,,SCT008,0.04,VWS V14.01,2013-06-29 11:41:00,
2013-06-29 07:46:00,59.7,59.2,29.74,ENE,68,0.0,0.0,98,0.00,,SCT008,0.04,VWS V14.01,2013-06-29 11:46:00,
2013-06-29 07:51:00,60.1,59.5,29.74,ENE,68,0.0,0.0,98,0.00,,SCT008,0.04,VWS V14.01,2013-06-29 11:51:00,
2013-06-29 07:56:00,60.4,59.9,29.74,SE,135,0.0,0.0,98,0.00,,SCT008,0.04,VWS V14.01,2013-06-29 11:56:00,
2013-06-29 08:01:00,60.8,60.2,29.71,ENE,68,0.0,0.0,98,0.00,,BKN006,0.04,VWS V14.01,2013-06-29 12:01:00,
2013-06-29 08:06:00,61.2,60.6,29.71,ENE,68,0.0,0.0,98,0.00,,BKN006,0.04,VWS V14.01,2013-06-29 12:06:00,
2013-06-29 08:11:00,61.7,61.1,29.71,ENE,68,0.0,0.0,98,0.00,,BKN006,0.04,VWS V14.01,2013-06-29 12:11:00,
2013-06-29 08:16:00,61.9,61.3,29.74,ENE,68,0.0,0.0,98,0.00,,BKN006,0.04,VWS V14.01,2013-06-29 12:16:00,
2013-06-29 08:21:00,62.6,62.0,29.74,ENE,68,0.0,0.0,98,0.00,,BKN006,0.04,VWS V14.01,2013-06-29 12:21:00,
2013-06-29 08:26:00,63.3,62.8,29.74,ENE,68,0.0,1.1,98,0.00,,BKN006,0.04,VWS V14.01,2013-06-29 12:26:00,
2013-06-29 08:31:00,64.0,63.5,29.71,SE,135,0.0,1.3,98,0.00,,BKN006,0.04,VWS V14.01,2013-06-29 12:31:00,
2013-06-29 08:36:00,64.8,64.2,29.71,East,90,0.0,0.0,98,0.00,,BKN006,0.04,VWS V14.01,2013-06-29 12:36:00,
2013-06-29 08:41:00,65.3,64.7,29.71,ENE,68,0.0,2.5,98,0.00,,BKN006,0.04,VWS V14.01,2013-06-29 12:41:00,
2013-06-29 08:46:00,65.7,65.1,29.74,East,90,0.0,0.0,98,0.00,,BKN006,0.04,VWS V14.01,2013-06-29 12:46:00,
2013-06-29 08:51:00,65.8,65.3,29.74,ENE,68,0.0,2.0,98,0.00,,BKN006,0.04,VWS V14.01,2013-06-29 12:51:00,
2013-06-29 08:56:00,66.6,66.0,29.74,ENE,68,0.0,1.3,98,0.00,,BKN006,0.04,VWS V14.01,2013-06-29 12:56:00,
2013-06-29 09:01:00,67.3,66.7,29.74,East,90,0.0,0.0,98,0.00,,BKN006,0.04,VWS V14.01,2013-06-29 13:01:00,
2013-06-29 09:06:00,68.5,68.0,29.74,South,180,2.7,4.0,98,0.00,,BKN006,0.04,VWS V14.01,2013-06-29 13:06:00,
2013-06-29 09:11:00,68.9,68.3,29.74,West,270,2.5,3.8,98,0.00,,BKN006,0.04,VWS V14.01,2013-06-29 13:11:00,
2013-06-29 09:16:00,69.8,68.9,29.74,SE,135,1.6,3.4,97,0.00,,BKN006,0.04,VWS V14.01,2013-06-29 13:16:00,
2013-06-29 09:21:00,72.0,69.5,29.74,ENE,68,2.5,2.9,92,0.00,,BKN006,0.04,VWS V14.01,2013-06-29 13:21:00,
2013-06-29 09:26:00,73.2,64.4,29.74,South,180,3.1,6.5,74,0.00,,BKN006,0.04,VWS V14.01,2013-06-29 13:26:00,
2013-06-29 09:31:00,73.9,62.3,29.76,East,90,2.0,3.8,67,0.00,,BKN037,0.04,VWS V14.01,2013-06-29 13:31:00,
2013-06-29 09:36:00,74.8,62.7,29.76,ESE,112,2.0,5.6,66,0.00,,BKN037,0.04,VWS V14.01,2013-06-29 13:36:00,
2013-06-29 09:41:00,76.1,63.0,29.76,SSE,158,5.6,5.6,64,0.00,,BKN037,0.04,VWS V14.01,2013-06-29 13:41:00,
2013-06-29 09:46:00,77.2,60.3,29.74,South,180,2.5,5.8,56,0.00,,BKN037,0.04,VWS V14.01,2013-06-29 13:46:00,
2013-06-29 09:51:00,77.5,59.6,29.74,ENE,68,2.5,3.6,54,0.00,,BKN037,0.04,VWS V14.01,2013-06-29 13:51:00,
2013-06-29 09:56:00,79.7,60.0,29.74,SSW,202,1.3,2.9,51,0.00,,BKN037,0.04,VWS V14.01,2013-06-29 13:56:00,
2013-06-29 10:01:00,78.6,57.9,29.74,ESE,112,4.0,4.3,49,0.00,,CLR,0.04,VWS V14.01,2013-06-29 14:01:00,
2013-06-29 10:06:00,77.5,58.0,29.74,SW,225,3.1,3.4,51,0.00,,CLR,0.04,VWS V14.01,2013-06-29 14:06:00,
2013-06-29 10:11:00,79.3,57.4,29.74,SE,135,3.6,6.5,47,0.00,,CLR,0.04,VWS V14.01,2013-06-29 14:11:00,
2013-06-29 10:16:00,79.3,56.8,29.74,SW,225,2.2,6.9,46,0.00,,CLR,0.04,VWS V14.01,2013-06-29 14:16:00,
2013-06-29 10:21:00,80.4,58.4,29.74,South,180,1.3,6.0,47,0.00,,CLR,0.04,VWS V14.01,2013-06-29 14:21:00,
2013-06-29 10:26:00,82.0,58.0,29.74,SE,135,4.5,8.7,44,0.00,,CLR,0.04,VWS V14.01,2013-06-29 14:26:00,
2013-06-29 10:31:00,83.3,58.5,29.71,SSE,158,1.3,4.0,43,0.00,,CLR,0.04,VWS V14.01,2013-06-29 14:31:00,
2013-06-29 10:36:00,82.6,55.8,29.71,South,180,3.6,3.8,40,0.00,,CLR,0.04,VWS V14.01,2013-06-29 14:36:00,
2013-06-29 10:41:00,82.4,56.4,29.71,South,180,2.9,6.5,41,0.00,,CLR,0.04,VWS V14.01,2013-06-29 14:41:00,
2013-06-29 10:46:00,83.8,57.0,29.71,South,180,4.0,4.3,40,0.00,,CLR,0.04,VWS V14.01,2013-06-29 14:46:00,
2013-06-29 10:51:00,83.7,56.1,29.71,South,180,5.4,7.8,39,0.00,,CLR,0.04,VWS V14.01,2013-06-29 14:51:00,
2013-06-29 10:56:00,84.6,54.7,29.71,WSW,248,2.9,6.5,36,0.00,,CLR,0.04,VWS V14.01,2013-06-29 14:56:00,
2013-06-29 11:01:00,84.0,55.0,29.74,East,90,4.7,8.1,37,0.00,,CLR,0.04,VWS V14.01,2013-06-29 15:01:00,
2013-06-29 11:06:00,86.2,56.9,29.74,SW,225,2.0,2.9,37,0.00,,CLR,0.04,VWS V14.01,2013-06-29 15:06:00,
2013-06-29 11:11:00,86.5,54.9,29.74,SE,135,4.0,5.4,34,0.00,,CLR,0.04,VWS V14.01,2013-06-29 15:11:00,
2013-06-29 11:16:00,84.4,53.0,29.74,South,180,4.3,6.0,34,0.00,,CLR,0.04,VWS V14.01,2013-06-29 15:16:00,
2013-06-29 11:21:00,87.1,53.7,29.74,South,180,0.0,5.4,32,0.00,,CLR,0.04,VWS V14.01,2013-06-29 15:21:00,
2013-06-29 11:26:00,85.5,53.1,29.74,West,270,0.0,4.7,33,0.00,,CLR,0.04,VWS V14.01,2013-06-29 15:26:00,
2013-06-29 11:31:00,86.5,53.2,29.74,NW,315,2.2,2.9,32,0.00,,CLR,0.04,VWS V14.01,2013-06-29 15:31:00,
2013-06-29 11:36:00,87.3,55.5,29.74,SW,225,2.9,3.1,34,0.00,,CLR,0.04,VWS V14.01,2013-06-29 15:36:00,
2013-06-29 11:41:00,86.9,52.7,29.74,SW,225,6.3,12.1,31,0.00,,CLR,0.04,VWS V14.01,2013-06-29 15:41:00,
2013-06-29 11:46:00,88.3,53.0,29.74,SW,225,4.0,5.6,30,0.00,,CLR,0.04,VWS V14.01,2013-06-29 15:46:00,
2013-06-29 11:51:00,89.6,55.0,29.74,WSW,248,0.9,4.0,31,0.00,,CLR,0.04,VWS V14.01,2013-06-29 15:51:00,
2013-06-29 11:56:00,89.2,52.9,29.74,South,180,6.0,8.1,29,0.00,,CLR,0.04,VWS V14.01,2013-06-29 15:56:00,
2013-06-29 12:01:00,88.7,52.4,29.74,South,180,3.6,5.4,29,0.00,,CLR,0.04,VWS V14.01,2013-06-29 16:01:00,
2013-06-29 12:06:00,87.4,52.2,29.74,East,90,2.7,6.3,30,0.00,,CLR,0.04,VWS V14.01,2013-06-29 16:06:00,
2013-06-29 12:11:00,87.3,52.1,29.74,East,90,6.3,7.8,30,0.00,,CLR,0.04,VWS V14.01,2013-06-29 16:11:00,
2013-06-29 12:16:00,87.6,52.4,29.74,SSW,202,2.2,4.9,30,0.00,,CLR,0.04,VWS V14.01,2013-06-29 16:16:00,
2013-06-29 12:21:00,88.7,52.4,29.74,SSW,202,5.8,5.8,29,0.00,,CLR,0.04,VWS V14.01,2013-06-29 16:21:00,
2013-06-29 12:26:00,92.7,55.8,29.74,South,180,3.1,3.1,29,0.00,,CLR,0.04,VWS V14.01,2013-06-29 16:26:00,
2013-06-29 12:31:00,88.9,51.6,29.74,SE,135,5.8,8.1,28,0.00,,CLR,0.04,VWS V14.01,2013-06-29 16:31:00,
2013-06-29 12:36:00,87.3,51.2,29.74,East,90,4.3,5.8,29,0.00,,CLR,0.04,VWS V14.01,2013-06-29 16:36:00,
2013-06-29 12:41:00,83.7,49.8,29.74,South,180,5.4,7.6,31,0.00,,CLR,0.04,VWS V14.01,2013-06-29 16:41:00,
2013-06-29 12:46:00,84.2,51.2,29.74,SE,135,1.6,4.0,32,0.00,,CLR,0.04,VWS V14.01,2013-06-29 16:46:00,
2013-06-29 12:51:00,82.6,48.9,29.74,SE,135,7.8,10.7,31,0.00,,CLR,0.04,VWS V14.01,2013-06-29 16:51:00,
2013-06-29 12:56:00,83.1,50.2,29.74,NW,315,5.4,5.4,32,0.00,,CLR,0.04,VWS V14.01,2013-06-29 16:56:00,
2013-06-29 13:01:00,83.5,51.4,29.74,NW,315,0.0,3.1,33,0.00,,FEW033,0.04,VWS V14.01,2013-06-29 17:01:00,
2013-06-29 13:06:00,86.4,54.7,29.74,SW,225,4.0,4.0,34,0.00,,FEW033,0.04,VWS V14.01,2013-06-29 17:06:00,
2013-06-29 13:11:00,84.0,51.0,29.74,South,180,1.6,4.3,32,0.00,,FEW033,0.04,VWS V14.01,2013-06-29 17:11:00,
2013-06-29 13:16:00,85.8,53.4,29.74,SE,135,1.6,1.6,33,0.00,,FEW033,0.04,VWS V14.01,2013-06-29 17:16:00,
2013-06-29 13:21:00,85.1,52.8,29.74,NW,315,0.9,2.7,33,0.00,,FEW033,0.04,VWS V14.01,2013-06-29 17:21:00,
2013-06-29 13:26:00,85.8,52.6,29.74,SW,225,2.0,2.5,32,0.00,,FEW033,0.04,VWS V14.01,2013-06-29 17:26:00,
2013-06-29 13:31:00,85.6,52.4,29.74,SW,225,0.0,2.0,32,0.00,,FEW033,0.04,VWS V14.01,2013-06-29 17:31:00,
2013-06-29 13:36:00,85.6,52.4,29.74,SSW,202,3.6,4.0,32,0.00,,FEW033,0.04,VWS V14.01,2013-06-29 17:36:00,
2013-06-29 13:41:00,89.6,55.9,29.74,SW,225,5.4,5.4,32,0.00,,FEW033,0.04,VWS V14.01,2013-06-29 17:41:00,
2013-06-29 13:46:00,90.0,53.5,29.71,SW,225,7.2,7.2,29,0.00,,FEW033,0.04,VWS V14.01,2013-06-29 17:46:00,
2013-06-29 13:51:00,89.2,51.9,29.71,South,180,5.8,6.0,28,0.00,,FEW033,0.04,VWS V14.01,2013-06-29 17:51:00,
2013-06-29 13:56:00,88.9,51.6,29.71,ESE,112,5.8,7.2,28,0.00,,FEW033,0.04,VWS V14.01,2013-06-29 17:56:00,
2013-06-29 14:01:00,89.4,52.1,29.71,ESE,112,2.0,6.0,28,0.00,,BKN095,0.04,VWS V14.01,2013-06-29 18:01:00,
2013-06-29 14:06:00,91.2,53.6,29.71,South,180,1.1,3.1,28,0.00,,BKN095,0.04,VWS V14.01,2013-06-29 18:06:00,
2013-06-29 14:11:00,86.5,50.5,29.71,NE,45,5.6,5.6,29,0.00,,BKN095,0.04,VWS V14.01,2013-06-29 18:11:00,
2013-06-29 14:16:00,86.0,51.9,29.71,SSE,158,2.0,5.6,31,0.00,,BKN095,0.04,VWS V14.01,2013-06-29 18:16:00,
2013-06-29 14:21:00,89.4,54.8,29.71,South,180,3.4,8.1,31,0.00,,BKN095,0.04,VWS V14.01,2013-06-29 18:21:00,
2013-06-29 14:26:00,86.9,51.8,29.71,SSE,158,2.2,9.6,30,0.00,,BKN095,0.04,VWS V14.01,2013-06-29 18:26:00,
2013-06-29 14:31:00,84.6,50.6,29.71,SE,135,4.3,4.3,31,0.00,,BKN095,0.04,VWS V14.01,2013-06-29 18:31:00,
2013-06-29 14:36:00,87.6,53.3,29.71,SW,225,2.9,4.9,31,0.00,,BKN095,0.04,VWS V14.01,2013-06-29 18:36:00,
2013-06-29 14:41:00,90.5,54.9,29.71,South,180,2.0,4.0,30,0.00,,BKN095,0.04,VWS V14.01,2013-06-29 18:41:00,
2013-06-29 14:46:00,89.6,54.1,29.71,ENE,68,0.9,1.6,30,0.00,,BKN095,0.04,VWS V14.01,2013-06-29 18:46:00,
2013-06-29 14:51:00,91.2,54.5,29.71,WSW,248,2.5,2.5,29,0.00,,BKN095,0.04,VWS V14.01,2013-06-29 18:51:00,
2013-06-29 14:56:00,91.4,53.8,29.71,SE,135,3.4,5.4,28,0.00,,BKN095,0.04,VWS V14.01,2013-06-29 18:56:00,
2013-06-29 15:01:00,89.2,51.9,29.68,South,180,2.0,6.5,28,0.00,,SCT100,0.04,VWS V14.01,2013-06-29 19:01:00,
2013-06-29 15:06:00,85.3,50.4,29.68,SE,135,3.6,9.2,30,0.00,,SCT100,0.04,VWS V14.01,2013-06-29 19:06:00,
2013-06-29 15:11:00,82.9,50.1,29.68,South,180,2.7,4.9,32,0.00,,SCT100,0.04,VWS V14.01,2013-06-29 19:11:00,
2013-06-29 15:16:00,81.9,50.0,29.71,West,270,1.6,3.1,33,0.00,,SCT100,0.04,VWS V14.01,2013-06-29 19:16:00,
2013-06-29 15:21:00,81.7,54.3,29.71,WNW,292,1.1,3.4,39,0.00,,SCT100,0.04,VWS V14.01,2013-06-29 19:21:00,
2013-06-29 15:26:00,80.8,55.6,29.71,NNW,338,3.1,3.4,42,0.00,,SCT100,0.04,VWS V14.01,2013-06-29 19:26:00,
2013-06-29 15:31:00,81.0,55.7,29.71,ENE,68,1.1,2.7,42,0.00,,SCT100,0.04,VWS V14.01,2013-06-29 19:31:00,
2013-06-29 15:36:00,86.7,59.5,29.71,NW,315,1.3,3.1,40,0.00,,SCT100,0.04,VWS V14.01,2013-06-29 19:36:00,
2013-06-29 15:41:00,88.2,57.1,29.71,South,180,2.5,3.6,35,0.00,,SCT100,0.04,VWS V14.01,2013-06-29 19:41:00,
2013-06-29 15:46:00,88.3,56.4,29.68,WNW,292,3.6,3.6,34,0.00,,SCT100,0.04,VWS V14.01,2013-06-29 19:46:00,
2013-06-29 15:51:00,85.5,56.2,29.68,WSW,248,0.0,2.0,37,0.00,,SCT100,0.04,VWS V14.01,2013-06-29 19:51:00,
2013-06-29 15:56:00,84.0,55.0,29.68,WNW,292,0.0,4.7,37,0.00,,SCT100,0.04,VWS V14.01,2013-06-29 19:56:00,
2013-06-29 16:01:00,88.2,58.6,29.68,NNW,338,1.3,2.2,37,0.00,,BKN100,0.04,VWS V14.01,2013-06-29 20:01:00,
2013-06-29 16:06:00,88.9,54.4,29.68,ESE,112,3.8,4.0,31,0.00,,BKN100,0.04,VWS V14.01,2013-06-29 20:06:00,
2013-06-29 16:11:00,88.5,54.9,29.68,NE,45,0.0,4.0,32,0.00,,BKN100,0.04,VWS V14.01,2013-06-29 20:11:00,
2013-06-29 16:16:00,88.5,53.2,29.68,South,180,4.0,7.2,30,0.00,,BKN100,0.04,VWS V14.01,2013-06-29 20:16:00,
2013-06-29 16:21:00,89.6,54.1,29.68,SW,225,2.0,4.0,30,0.00,,BKN100,0.04,VWS V14.01,2013-06-29 20:21:00,
2013-06-29 16:26:00,90.3,54.7,29.68,WSW,248,2.5,3.1,30,0.00,,BKN100,0.04,VWS V14.01,2013-06-29 20:26:00,
2013-06-29 16:31:00,91.8,54.0,29.68,SSW,202,3.6,6.0,28,0.00,,BKN100,0.04,VWS V14.01,2013-06-29 20:31:00,
2013-06-29 16:36:00,93.9,55.9,29.68,NW,315,1.6,2.2,28,0.00,,BKN100,0.04,VWS V14.01,2013-06-29 20:36:00,
2013-06-29 16:41:00,93.9,54.9,29.68,WNW,292,1.3,4.7,27,0.00,,BKN100,0.04,VWS V14.01,2013-06-29 20:41:00,
2013-06-29 16:46:00,94.6,55.5,29.68,West,270,0.9,4.3,27,0.00,,BKN100,0.04,VWS V14.01,2013-06-29 20:46:00,
2013-06-29 16:51:00,92.7,54.8,29.68,South,180,2.0,5.6,28,0.00,,BKN100,0.04,VWS V14.01,2013-06-29 20:51:00,
2013-06-29 16:56:00,90.7,53.1,29.68,East,90,1.6,4.9,28,0.00,,BKN100,0.04,VWS V14.01,2013-06-29 20:56:00,
2013-06-29 17:01:00,87.4,52.2,29.68,ESE,112,4.3,4.3,30,0.00,,-RA,0.04,VWS V14.01,2013-06-29 21:01:00,
2013-06-29 17:06:00,85.3,51.2,29.68,ESE,112,2.9,6.3,31,0.00,,-RA,0.04,VWS V14.01,2013-06-29 21:06:00,
2013-06-29 17:11:00,85.3,53.0,29.68,SSE,158,3.1,5.4,33,0.00,,-RA,0.04,VWS V14.01,2013-06-29 21:11:00,
2013-06-29 17:16:00,87.1,53.7,29.68,South,180,1.1,4.7,32,0.00,,-RA,0.04,VWS V14.01,2013-06-29 21:16:00,
2013-06-29 17:21:00,86.2,52.0,29.68,SSE,158,4.0,6.3,31,0.00,,-RA,0.04,VWS V14.01,2013-06-29 21:21:00,
2013-06-29 17:26:00,83.3,51.2,29.68,SSE,158,3.8,6.3,33,0.00,,-RA,0.04,VWS V14.01,2013-06-29 21:26:00,
2013-06-29 17:31:00,83.1,51.9,29.68,South,180,0.9,4.3,34,0.00,,-RA,0.04,VWS V14.01,2013-06-29 21:31:00,
2013-06-29 17:36:00,83.3,52.0,29.68,East,90,4.0,4.0,34,0.00,,-RA,0.04,VWS V14.01,2013-06-29 21:36:00,
2013-06-29 17:41:00,83.3,52.8,29.68,South,180,2.5,2.5,35,0.00,,-RA,0.04,VWS V14.01,2013-06-29 21:41:00,
2013-06-29 17:46:00,84.9,51.8,29.68,West,270,6.0,6.5,32,0.00,,-RA,0.04,VWS V14.01,2013-06-29 21:46:00,
2013-06-29 17:51:00,85.3,52.1,29.68,SW,225,4.0,4.0,32,0.00,,-RA,0.04,VWS V14.01,2013-06-29 21:51:00,
2013-06-29 17:56:00,83.8,50.9,29.68,East,90,6.0,6.0,32,0.00,,-RA,0.04,VWS V14.01,2013-06-29 21:56:00,
2013-06-29 18:01:00,81.9,51.5,29.65,SSW,202,2.5,5.4,35,0.00,,FEW110,0.04,VWS V14.01,2013-06-29 22:01:00,
2013-06-29 18:06:00,82.8,51.6,29.65,South,180,6.3,6.3,34,0.00,,FEW110,0.04,VWS V14.01,2013-06-29 22:06:00,
2013-06-29 18:11:00,84.7,53.3,29.65,SW,225,4.3,4.3,34,0.00,,FEW110,0.04,VWS V14.01,2013-06-29 22:11:00,
2013-06-29 18:16:00,82.9,51.7,29.68,ESE,112,3.4,5.6,34,0.00,,FEW110,0.04,VWS V14.01,2013-06-29 22:16:00,
2013-06-29 18:21:00,80.6,52.0,29.68,South,180,1.6,5.8,37,0.00,,FEW110,0.04,VWS V14.01,2013-06-29 22:21:00,
2013-06-29 18:26:00,79.0,50.5,29.68,South,180,5.6,8.7,37,0.00,,FEW110,0.04,VWS V14.01,2013-06-29 22:26:00,
2013-06-29 18:31:00,78.6,52.3,29.68,South,180,3.8,3.8,40,0.00,,FEW110,0.04,VWS V14.01,2013-06-29 22:31:00,
2013-06-29 18:36:00,78.4,52.8,29.68,South,180,2.7,4.3,41,0.00,,FEW110,0.04,VWS V14.01,2013-06-29 22:36:00,
2013-06-29 18:41:00,78.3,52.7,29.68,East,90,3.6,5.4,41,0.00,,FEW110,0.04,VWS V14.01,2013-06-29 22:41:00,
2013-06-29 18:46:00,78.1,53.8,29.68,SSE,158,1.1,2.5,43,0.00,,FEW110,0.04,VWS V14.01,2013-06-29 22:46:00,
2013-06-29 18:51:00,77.7,54.1,29.68,South,180,0.0,1.3,44,0.00,,FEW110,0.04,VWS V14.01,2013-06-29 22:51:00,
2013-06-29 18:56:00,76.6,54.9,29.68,East,90,2.7,3.8,47,0.00,,FEW110,0.04,VWS V14.01,2013-06-29 22:56:00,
2013-06-29 19:01:00,75.9,54.3,29.71,ESE,112,2.5,3.4,47,0.00,,FEW042,0.04,VWS V14.01,2013-06-29 23:01:00,
2013-06-29 19:06:00,75.9,54.3,29.71,SSE,158,0.0,2.2,47,0.00,,FEW042,0.04,VWS V14.01,2013-06-29 23:06:00,
2013-06-29 19:11:00,75.9,54.3,29.71,NW,315,0.0,2.2,47,0.00,,FEW042,0.04,VWS V14.01,2013-06-29 23:11:00,
2013-06-29 19:16:00,75.2,55.3,29.71,North,0,1.6,1.6,50,0.00,,FEW042,0.04,VWS V14.01,2013-06-29 23:16:00,
2013-06-29 19:21:00,74.7,54.8,29.71,NW,315,0.0,0.9,50,0.00,,FEW042,0.04,VWS V14.01,2013-06-29 23:21:00,
2013-06-29 19:26:00,74.3,54.5,29.71,NW,315,0.0,0.0,50,0.00,,FEW042,0.04,VWS V14.01,2013-06-29 23:26:00,
2013-06-29 19:31:00,74.1,55.9,29.71,NW,315,0.0,0.0,53,0.00,,FEW042,0.04,VWS V14.01,2013-06-29 23:31:00,
2013-06-29 19:36:00,73.8,57.1,29.71,NNW,338,0.0,0.0,56,0.00,,FEW042,0.04,VWS V14.01,2013-06-29 23:36:00,
2013-06-29 19:41:00,73.2,58.0,29.71,North,0,1.3,1.3,59,0.00,,FEW042,0.04,VWS V14.01,2013-06-29 23:41:00,
2013-06-29 19:46:00,72.7,58.0,29.71,NE,45,1.3,2.2,60,0.00,,FEW042,0.04,VWS V14.01,2013-06-29 23:46:00,
2013-06-29 19:51:00,72.3,57.2,29.71,NNW,338,1.6,1.6,59,0.00,,FEW042,0.04,VWS V14.01,2013-06-29 23:51:00,
2013-06-29 19:56:00,72.1,58.0,29.71,NNW,338,0.0,2.9,61,0.00,,FEW042,0.04,VWS V14.01,2013-06-29 23:56:00,
2013-06-29 20:01:00,72.0,58.2,29.74,NW,315,3.4,4.3,62,0.00,,BKN046,0.04,VWS V14.01,2013-06-30 00:01:00,
2013-06-29 20:06:00,71.8,57.6,29.74,North,0,1.1,4.3,61,0.00,,BKN046,0.04,VWS V14.01,2013-06-30 00:06:00,
2013-06-29 20:11:00,70.7,57.9,29.74,East,90,1.6,3.1,64,0.00,,BKN046,0.04,VWS V14.01,2013-06-30 00:11:00,
2013-06-29 20:16:00,70.0,58.1,29.74,NW,315,2.5,9.6,66,0.00,,BKN046,0.04,VWS V14.01,2013-06-30 00:16:00,
2013-06-29 20:21:00,69.3,58.3,29.74,NW,315,0.0,2.2,68,0.00,,BKN046,0.04,VWS V14.01,2013-06-30 00:21:00,
2013-06-29 20:26:00,68.5,58.8,29.74,NNW,338,2.0,2.9,71,0.00,,BKN046,0.04,VWS V14.01,2013-06-30 00:26:00,
2013-06-29 20:31:00,68.2,58.0,29.74,SW,225,0.0,0.9,70,0.00,,BKN046,0.04,VWS V14.01,2013-06-30 00:31:00,
2013-06-29 20:36:00,67.8,58.9,29.74,NNE,22,0.0,0.0,73,0.00,,BKN046,0.04,VWS V14.01,2013-06-30 00:36:00,
2013-06-29 20:41:00,67.5,59.3,29.74,North,0,0.0,0.0,75,0.00,,BKN046,0.04,VWS V14.01,2013-06-30 00:41:00,
2013-06-29 20:46:00,67.1,59.3,29.74,WNW,292,0.0,0.0,76,0.00,,BKN046,0.04,VWS V14.01,2013-06-30 00:46:00,
2013-06-29 20:51:00,67.1,60.0,29.74,NW,315,0.0,0.0,78,0.00,,BKN046,0.04,VWS V14.01,2013-06-30 00:51:00,
2013-06-29 20:56:00,66.9,59.8,29.74,WNW,292,0.0,0.0,78,0.00,,BKN046,0.04,VWS V14.01,2013-06-30 00:56:00,
2013-06-29 21:01:00,66.7,59.7,29.71,WNW,292,0.0,0.0,78,0.00,,OVC100,0.04,VWS V14.01,2013-06-30 01:01:00,
2013-06-29 21:06:00,66.6,59.8,29.71,WNW,292,0.0,0.0,79,0.00,,OVC100,0.04,VWS V14.01,2013-06-30 01:06:00,
2013-06-29 21:11:00,66.6,60.6,29.71,NW,315,0.0,0.0,81,0.00,,OVC100,0.04,VWS V14.01,2013-06-30 01:11:00,
2013-06-29 21:16:00,66.4,60.0,29.71,NW,315,0.0,0.0,80,0.00,,OVC100,0.04,VWS V14.01,2013-06-30 01:16:00,
2013-06-29 21:21:00,66.2,60.2,29.71,NW,315,0.0,0.0,81,0.00,,OVC100,0.04,VWS V14.01,2013-06-30 01:21:00,
2013-06-29 21:26:00,66.0,60.0,29.71,NW,315,0.0,0.0,81,0.00,,OVC100,0.04,VWS V14.01,2013-06-30 01:26:00,
2013-06-29 21:31:00,65.8,59.8,29.74,NW,315,0.0,0.0,81,0.00,,OVC100,0.04,VWS V14.01,2013-06-30 01:31:00,
2013-06-29 21:36:00,65.7,60.4,29.74,NW,315,0.0,0.0,83,0.00,,OVC100,0.04,VWS V14.01,2013-06-30 01:36:00,
2013-06-29 21:41:00,65.5,60.5,29.74,NW,315,0.0,0.0,84,0.00,,OVC100,0.04,VWS V14.01,2013-06-30 01:41:00,
2013-06-29 21:46:00,65.5,60.5,29.74,NW,315,0.0,0.0,84,0.00,,OVC100,0.04,VWS V14.01,2013-06-30 01:46:00,
2013-06-29 21:51:00,65.1,60.2,29.74,NW,315,0.0,0.0,84,0.00,,OVC100,0.04,VWS V14.01,2013-06-30 01:51:00,
2013-06-29 21:56:00,64.9,60.0,29.74,NW,315,0.0,0.0,84,0.00,,OVC100,0.04,VWS V14.01,2013-06-30 01:56:00,
2013-06-29 22:01:00,64.8,60.2,29.74,NW,315,0.0,0.0,85,0.00,,-RA,0.04,VWS V14.01,2013-06-30 02:01:00,
2013-06-29 22:06:00,64.6,60.0,29.74,NW,315,0.0,0.0,85,0.00,,-RA,0.04,VWS V14.01,2013-06-30 02:06:00,
2013-06-29 22:11:00,64.4,59.8,29.74,NW,315,0.0,0.9,85,0.00,,-RA,0.04,VWS V14.01,2013-06-30 02:11:00,
2013-06-29 22:16:00,64.2,60.6,29.76,NNW,338,0.0,1.3,88,0.00,,-RA,0.04,VWS V14.01,2013-06-30 02:16:00,
2013-06-29 22:21:00,64.0,60.4,29.76,NNW,338,0.0,0.0,88,0.00,,-RA,0.04,VWS V14.01,2013-06-30 02:21:00,
2013-06-29 22:26:00,63.9,60.2,29.76,NNW,338,0.0,0.0,88,0.00,,-RA,0.04,VWS V14.01,2013-06-30 02:26:00,
2013-06-29 22:31:00,63.9,59.6,29.76,SW,225,1.3,1.3,86,0.00,,-RA,0.04,VWS V14.01,2013-06-30 02:31:00,
2013-06-29 22:36:00,64.0,61.0,29.76,SW,225,0.0,1.6,90,0.00,,-RA,0.04,VWS V14.01,2013-06-30 02:36:00,
2013-06-29 22:41:00,63.9,61.5,29.76,SW,225,0.0,1.3,92,0.00,,-RA,0.04,VWS V14.01,2013-06-30 02:41:00,
2013-06-29 22:46:00,63.5,60.8,29.76,West,270,0.0,0.0,91,0.00,,-RA,0.04,VWS V14.01,2013-06-30 02:46:00,
2013-06-29 22:51:00,63.3,60.7,29.76,West,270,0.0,0.0,91,0.00,,-RA,0.04,VWS V14.01,2013-06-30 02:51:00,
2013-06-29 22:56:00,63.1,60.5,29.76,West,270,0.0,0.0,91,0.00,,-RA,0.04,VWS V14.01,2013-06-30 02:56:00,
2013-06-29 23:01:00,63.1,60.5,29.76,West,270,0.0,0.0,91,0.00,,OVC110,0.04,VWS V14.01,2013-06-30 03:01:00,
2013-06-29 23:06:00,63.0,60.3,29.76,West,270,0.0,0.0,91,0.00,,OVC110,0.04,VWS V14.01,2013-06-30 03:06:00,
2013-06-29 23:11:00,63.0,60.3,29.76,West,270,0.0,0.0,91,0.00,,OVC110,0.04,VWS V14.01,2013-06-30 03:11:00,
2013-06-29 23:16:00,63.1,60.5,29.76,SW,225,0.0,0.0,91,0.00,,OVC110,0.04,VWS V14.01,2013-06-30 03:16:00,
2013-06-29 23:21:00,63.3,60.7,29.76,SW,225,0.0,0.0,91,0.00,,OVC110,0.04,VWS V14.01,2013-06-30 03:21:00,
2013-06-29 23:26:00,63.1,60.5,29.76,West,270,0.0,0.0,91,0.00,,OVC110,0.04,VWS V14.01,2013-06-30 03:26:00,
2013-06-29 23:31:00,62.8,60.4,29.76,West,270,0.0,0.0,92,0.00,,OVC110,0.04,VWS V14.01,2013-06-30 03:31:00,
2013-06-29 23:36:00,62.4,60.1,29.76,West,270,0.0,0.0,92,0.00,,OVC110,0.04,VWS V14.01,2013-06-30 03:36:00,
2013-06-29 23:41:00,62.6,60.2,29.76,WSW,248,0.0,0.0,92,0.00,,OVC110,0.04,VWS V14.01,2013-06-30 03:41:00,
2013-06-29 23:46:00,62.6,60.2,29.76,WSW,248,0.0,0.0,92,0.00,,OVC110,0.04,VWS V14.01,2013-06-30 03:46:00,
2013-06-29 23:51:00,62.6,60.2,29.76,West,270,0.0,0.0,92,0.00,,OVC110,0.04,VWS V14.01,2013-06-30 03:51:00,
2013-06-29 23:56:00,62.6,60.2,29.76,ESE,112,0.9,1.6,92,0.00,,OVC110,0.04,VWS V14.01,2013-06-30 03:56:00,